Time;durP1;ratioP1;P1;durP2;ratioP2;P2;SDS_P1;SDS_P2;PMS_P1;PMS_P2;Temp;Humidity;BMP_temperature;BMP_pressure;BME280_temperature;BME280_humidity;BME280_pressure;Samples;Min_cycle;Max_cycle;Signal;HPM_P1;HPM_P2
2023/09/10 00:00:57;;;;;;;16.10;12.70;;;17.60;99.90;;;;;;4979215;28;20030;-86
2023/09/10 00:03:22;;;;;;;16.50;13.70;;;17.50;99.90;;;;;;4975576;28;20029;-86
2023/09/10 00:05:48;;;;;;;24.02;13.07;;;17.50;99.90;;;;;;4996656;28;21084;-86
2023/09/10 00:08:14;;;;;;;16.98;13.55;;;17.50;99.90;;;;;;4997001;28;20076;-85
2023/09/10 00:10:41;;;;;;;16.52;13.70;;;17.40;99.90;;;;;;4995543;28;20032;-85
2023/09/10 00:13:07;;;;;;;15.63;13.10;;;17.40;99.90;;;;;;4997446;28;20025;-85
2023/09/10 00:15:33;;;;;;;17.00;13.70;;;17.40;99.90;;;;;;4995058;28;20033;-84
2023/09/10 00:17:59;;;;;;;15.43;13.65;;;17.30;99.90;;;;;;4979108;28;20081;-85
2023/09/10 00:20:26;;;;;;;16.77;13.25;;;17.30;99.90;;;;;;4994045;28;20895;-85
2023/09/10 00:22:52;;;;;;;16.48;14.45;;;17.30;99.90;;;;;;4978839;28;20022;-85
2023/09/10 00:25:17;;;;;;;15.88;13.32;;;17.20;99.90;;;;;;4977611;28;20028;-85
2023/09/10 00:27:43;;;;;;;17.02;13.45;;;17.20;99.90;;;;;;4997498;28;20416;-86
2023/09/10 00:30:09;;;;;;;18.42;14.18;;;17.20;99.90;;;;;;4995426;28;20030;-85
2023/09/10 00:32:35;;;;;;;16.48;13.48;;;17.20;99.90;;;;;;4996279;28;20026;-85
2023/09/10 00:35:00;;;;;;;18.10;14.77;;;17.20;99.90;;;;;;4996886;28;20049;-85
2023/09/10 00:37:26;;;;;;;16.45;13.98;;;17.20;99.90;;;;;;4996075;28;20030;-85
2023/09/10 00:39:52;;;;;;;15.60;13.85;;;17.20;99.90;;;;;;4995007;28;20029;-85
2023/09/10 00:42:17;;;;;;;14.65;13.25;;;17.20;99.90;;;;;;4995332;28;20038;-85
2023/09/10 00:44:43;;;;;;;18.75;14.13;;;17.10;99.90;;;;;;4996897;28;20057;-85
2023/09/10 00:47:09;;;;;;;18.83;13.95;;;17.20;99.90;;;;;;4994183;28;20030;-85
2023/09/10 00:49:35;;;;;;;15.98;14.07;;;17.20;99.90;;;;;;4995045;28;20052;-86
2023/09/10 00:52:02;;;;;;;19.17;14.10;;;17.10;99.90;;;;;;4996653;28;20514;-85
2023/09/10 00:54:34;;;;;;;16.77;13.80;;;17.10;99.90;;;;;;4996519;28;20416;-85
2023/09/10 00:57:03;;;;;;;15.10;13.50;;;17.10;99.90;;;;;;4997122;28;20093;-85
2023/09/10 00:59:30;;;;;;;18.70;13.82;;;17.10;99.90;;;;;;4994826;28;20136;-86
2023/09/10 01:01:57;;;;;;;15.43;13.82;;;17.10;99.90;;;;;;4997509;28;20034;-85
2023/09/10 01:04:23;;;;;;;16.25;14.55;;;17.00;99.90;;;;;;4997560;28;20673;-85
2023/09/10 01:06:51;;;;;;;16.35;13.63;;;17.00;99.90;;;;;;4997696;28;20045;-85
2023/09/10 01:09:16;;;;;;;18.88;14.63;;;17.00;99.90;;;;;;5001181;28;20533;-85
2023/09/10 01:12:01;;;;;;;16.65;14.63;;;16.90;99.90;;;;;;5003211;28;20022;-86
2023/09/10 01:14:40;;;;;;;14.93;13.43;;;16.90;99.90;;;;;;5001856;28;20041;-85
2023/09/10 01:17:18;;;;;;;17.80;13.80;;;16.90;99.90;;;;;;5003597;28;20041;-85
2023/09/10 01:19:47;;;;;;;17.27;14.18;;;16.90;99.90;;;;;;5004735;28;20109;-86
2023/09/10 01:22:43;;;;;;;18.65;13.80;;;16.90;99.90;;;;;;5007031;28;20022;-85
2023/09/10 01:25:09;;;;;;;16.05;13.88;;;16.80;99.90;;;;;;5014175;28;20121;-84
2023/09/10 01:27:35;;;;;;;18.23;14.45;;;16.80;99.90;;;;;;5027631;28;20017;-83
2023/09/10 01:30:00;;;;;;;18.67;14.43;;;16.80;99.90;;;;;;5028299;28;20010;-84
2023/09/10 01:32:43;;;;;;;18.35;14.30;;;16.80;99.90;;;;;;5006327;28;20030;-85
2023/09/10 01:35:25;;;;;;;17.92;13.88;;;16.80;99.90;;;;;;4993307;28;20100;-85
2023/09/10 01:38:03;;;;;;;16.38;13.32;;;16.80;99.90;;;;;;4998984;28;20621;-85
2023/09/10 01:40:44;;;;;;;16.75;13.70;;;16.80;99.90;;;;;;4997781;28;20026;-85
2023/09/10 01:43:10;;;;;;;18.50;13.95;;;16.80;99.90;;;;;;4998867;28;20049;-85
2023/09/10 01:45:36;;;;;;;17.00;14.20;;;16.70;99.90;;;;;;4998151;28;20025;-86
2023/09/10 01:48:02;;;;;;;15.80;14.00;;;16.70;99.90;;;;;;4999659;28;20030;-86
2023/09/10 01:50:29;;;;;;;16.35;13.55;;;16.70;99.90;;;;;;4998321;28;20030;-85
2023/09/10 01:52:57;;;;;;;16.45;14.75;;;16.70;99.90;;;;;;4999210;28;20032;-85
2023/09/10 01:55:23;;;;;;;19.80;15.20;;;16.70;99.90;;;;;;4997623;28;20415;-85
2023/09/10 01:57:49;;;;;;;19.42;13.95;;;16.70;99.90;;;;;;4998892;28;20022;-85
2023/09/10 02:00:15;;;;;;;18.70;14.23;;;16.60;99.90;;;;;;4998586;28;20021;-86
2023/09/10 02:02:40;;;;;;;16.63;14.63;;;16.60;99.90;;;;;;4998971;28;20092;-86
2023/09/10 02:05:06;;;;;;;16.13;14.00;;;16.60;99.90;;;;;;4998451;28;20183;-86
2023/09/10 02:07:32;;;;;;;24.63;15.23;;;16.60;99.90;;;;;;4983136;28;20025;-86
2023/09/10 02:09:58;;;;;;;15.88;14.18;;;16.50;99.90;;;;;;4998168;28;20041;-85
2023/09/10 02:12:24;;;;;;;17.05;14.48;;;16.50;99.90;;;;;;5000370;28;20025;-87
2023/09/10 02:14:50;;;;;;;18.02;13.85;;;16.50;99.90;;;;;;5002115;28;20029;-86
2023/09/10 02:17:16;;;;;;;16.05;14.20;;;16.50;99.90;;;;;;5003313;28;20052;-86
2023/09/10 02:19:41;;;;;;;18.27;14.52;;;16.40;99.90;;;;;;4998915;28;20037;-85
2023/09/10 02:22:07;;;;;;;15.18;13.60;;;16.50;99.90;;;;;;4978915;28;20030;-86
2023/09/10 02:24:33;;;;;;;16.00;14.02;;;16.40;99.90;;;;;;5001197;28;20022;-86
2023/09/10 02:26:58;;;;;;;16.27;14.18;;;16.40;99.90;;;;;;5005528;28;20124;-86
2023/09/10 02:29:24;;;;;;;15.25;13.38;;;16.40;99.90;;;;;;4985469;28;20040;-86
2023/09/10 02:31:49;;;;;;;15.77;13.75;;;16.40;99.90;;;;;;5003678;28;20030;-85
2023/09/10 02:34:15;;;;;;;17.13;13.25;;;16.30;99.90;;;;;;5003020;28;20612;-85
2023/09/10 02:36:40;;;;;;;16.23;13.77;;;16.30;99.90;;;;;;5003983;28;20480;-86
2023/09/10 02:39:06;;;;;;;19.65;13.93;;;16.30;99.90;;;;;;4998811;28;20038;-86
2023/09/10 02:41:31;;;;;;;15.88;13.70;;;16.30;99.90;;;;;;4997071;28;20068;-85
2023/09/10 02:43:57;;;;;;;17.33;14.27;;;16.30;99.90;;;;;;4998359;28;20133;-86
2023/09/10 02:46:25;;;;;;;15.90;14.20;;;16.20;99.90;;;;;;4999110;28;20080;-85
2023/09/10 02:48:50;;;;;;;15.38;13.65;;;16.20;99.90;;;;;;4996682;28;20022;-86
2023/09/10 02:51:16;;;;;;;15.60;13.50;;;16.10;99.90;;;;;;4997806;28;20084;-85
2023/09/10 02:53:41;;;;;;;14.55;13.05;;;16.20;99.90;;;;;;4998719;28;20022;-86
2023/09/10 02:56:07;;;;;;;15.73;12.93;;;16.20;99.90;;;;;;4997697;28;20448;-85
2023/09/10 02:58:32;;;;;;;15.88;13.52;;;16.10;99.90;;;;;;4997059;28;20034;-86
2023/09/10 03:01:05;;;;;;;16.73;13.70;;;16.10;99.90;;;;;;4997281;28;20037;-85
2023/09/10 03:03:31;;;;;;;16.35;13.73;;;16.10;99.90;;;;;;4998808;28;20026;-86
2023/09/10 03:05:57;;;;;;;15.32;13.00;;;16.10;99.90;;;;;;4979281;28;20034;-85
2023/09/10 03:08:22;;;;;;;14.90;13.40;;;16.00;99.90;;;;;;4980110;28;20049;-85
2023/09/10 03:10:48;;;;;;;17.25;14.40;;;16.10;99.90;;;;;;4996754;28;20031;-85
2023/09/10 03:13:13;;;;;;;19.45;14.00;;;16.10;99.90;;;;;;4998432;28;20056;-86
2023/09/10 03:15:39;;;;;;;18.13;14.13;;;16.10;99.90;;;;;;4998932;28;20117;-85
2023/09/10 03:18:04;;;;;;;16.08;14.38;;;16.10;99.90;;;;;;4997996;28;20093;-86
2023/09/10 03:20:31;;;;;;;16.85;14.85;;;16.10;99.90;;;;;;4997683;28;20025;-85
2023/09/10 03:22:59;;;;;;;17.88;14.55;;;16.00;99.90;;;;;;4998964;28;20041;-86
2023/09/10 03:25:25;;;;;;;17.50;14.40;;;16.00;99.90;;;;;;4998104;28;21376;-85
2023/09/10 03:27:50;;;;;;;15.50;13.57;;;16.00;99.90;;;;;;4997086;28;20026;-86
2023/09/10 03:30:16;;;;;;;16.73;13.68;;;16.00;99.90;;;;;;4996624;28;20029;-85
2023/09/10 03:32:42;;;;;;;15.45;13.77;;;16.00;99.90;;;;;;4998401;28;20030;-85
2023/09/10 03:35:10;;;;;;;16.42;12.02;;;16.00;99.90;;;;;;4997448;28;20030;-85
2023/09/10 03:37:36;;;;;;;13.02;11.73;;;15.90;99.90;;;;;;4997730;28;20033;-86
2023/09/10 03:40:04;;;;;;;15.35;12.32;;;15.90;99.90;;;;;;4995460;28;20029;-86
2023/09/10 03:42:29;;;;;;;14.60;12.50;;;15.80;99.90;;;;;;4998656;28;20137;-86
2023/09/10 03:44:55;;;;;;;15.15;13.50;;;15.80;99.90;;;;;;4996308;28;20445;-85
2023/09/10 03:47:21;;;;;;;21.02;13.50;;;15.80;99.90;;;;;;4995906;28;20026;-85
2023/09/10 03:49:46;;;;;;;16.60;13.90;;;15.70;99.90;;;;;;4996749;28;20025;-85
2023/09/10 03:52:17;;;;;;;15.27;13.38;;;15.70;99.90;;;;;;4997427;28;20026;-85
2023/09/10 03:54:43;;;;;;;15.80;14.10;;;15.70;99.90;;;;;;4998953;28;20026;-85
2023/09/10 03:57:08;;;;;;;16.95;14.38;;;15.70;99.90;;;;;;4998664;28;20815;-87
2023/09/10 03:59:35;;;;;;;17.98;13.95;;;15.70;99.90;;;;;;4998567;28;20054;-84
2023/09/10 04:02:02;;;;;;;18.38;13.93;;;15.70;99.90;;;;;;4998999;28;20030;-86
2023/09/10 04:04:28;;;;;;;16.10;13.60;;;15.70;99.90;;;;;;4998552;28;20396;-87
2023/09/10 04:06:54;;;;;;;16.10;13.13;;;15.70;99.90;;;;;;5001754;28;20050;-86
2023/09/10 04:09:20;;;;;;;14.13;12.63;;;15.70;99.90;;;;;;5001268;28;20609;-84
2023/09/10 04:11:45;;;;;;;15.13;13.63;;;15.70;99.90;;;;;;5003542;28;20026;-85
2023/09/10 04:14:11;;;;;;;17.35;13.23;;;15.70;99.90;;;;;;5007341;28;20198;-85
2023/09/10 04:16:36;;;;;;;16.10;13.70;;;15.70;99.90;;;;;;5000130;28;20037;-83
2023/09/10 04:19:02;;;;;;;15.40;13.80;;;15.70;99.90;;;;;;5023731;28;20029;-83
2023/09/10 04:21:27;;;;;;;16.67;13.95;;;15.70;99.90;;;;;;5023420;28;20025;-86
2023/09/10 04:23:54;;;;;;;16.40;14.50;;;15.70;99.90;;;;;;4995107;28;20048;-86
2023/09/10 04:26:21;;;;;;;15.93;13.80;;;15.70;99.90;;;;;;4998052;28;20088;-86
2023/09/10 04:28:46;;;;;;;16.80;14.20;;;15.70;99.90;;;;;;4996036;28;20030;-85
2023/09/10 04:31:15;;;;;;;17.15;13.73;;;15.70;99.90;;;;;;4996091;28;20601;-86
2023/09/10 04:33:41;;;;;;;15.40;13.80;;;15.70;99.90;;;;;;4997740;28;20026;-86
2023/09/10 04:36:06;;;;;;;15.65;14.05;;;15.70;99.90;;;;;;4979477;28;21010;-86
2023/09/10 04:38:32;;;;;;;17.45;14.50;;;15.70;99.90;;;;;;4996695;28;20087;-86
2023/09/10 04:40:57;;;;;;;15.38;13.60;;;15.70;99.90;;;;;;4995342;28;20030;-85
2023/09/10 04:43:23;;;;;;;18.15;13.40;;;15.70;99.90;;;;;;5000178;28;20501;-85
2023/09/10 04:45:48;;;;;;;14.07;12.57;;;15.70;99.90;;;;;;5000726;28;20049;-86
2023/09/10 04:48:14;;;;;;;17.48;12.98;;;15.70;99.90;;;;;;4999195;28;20702;-86
2023/09/10 04:50:40;;;;;;;15.63;13.13;;;15.70;99.90;;;;;;5000231;28;20029;-85
2023/09/10 04:53:06;;;;;;;15.50;12.77;;;15.70;99.90;;;;;;5001563;28;20030;-85
2023/09/10 04:55:31;;;;;;;15.50;13.00;;;15.70;99.90;;;;;;5001286;28;20042;-86
2023/09/10 04:57:57;;;;;;;13.88;12.45;;;15.60;99.90;;;;;;5000530;28;20033;-85
2023/09/10 05:00:22;;;;;;;14.98;12.32;;;15.60;99.90;;;;;;4999883;28;20092;-86
2023/09/10 05:02:48;;;;;;;13.82;12.30;;;15.60;99.90;;;;;;5000655;28;20029;-85
2023/09/10 05:05:14;;;;;;;16.02;13.50;;;15.60;99.90;;;;;;4999541;28;20040;-86
2023/09/10 05:07:40;;;;;;;17.40;14.00;;;15.60;99.90;;;;;;5005579;28;20026;-84
2023/09/10 05:10:06;;;;;;;15.40;13.40;;;15.60;99.90;;;;;;5016480;28;20044;-86
2023/09/10 05:12:32;;;;;;;15.55;13.57;;;15.60;99.90;;;;;;4999533;28;20026;-86
2023/09/10 05:14:59;;;;;;;16.10;14.50;;;15.70;99.90;;;;;;4981368;28;20034;-85
2023/09/10 05:17:25;;;;;;;16.08;13.63;;;15.70;99.90;;;;;;5001246;28;20030;-85
2023/09/10 05:19:50;;;;;;;16.17;13.68;;;15.70;99.90;;;;;;5001134;28;20101;-86
2023/09/10 05:22:16;;;;;;;16.27;13.85;;;15.70;99.90;;;;;;5003981;28;20026;-85
2023/09/10 05:24:41;;;;;;;17.15;15.02;;;15.80;99.90;;;;;;4988043;28;20034;-86
2023/09/10 05:27:07;;;;;;;20.38;14.60;;;15.80;99.90;;;;;;5000055;28;20033;-85
2023/09/10 05:29:32;;;;;;;17.38;15.02;;;15.90;99.90;;;;;;5000634;28;20103;-85
2023/09/10 05:31:58;;;;;;;20.27;15.10;;;15.90;99.90;;;;;;4999926;28;20038;-86
2023/09/10 05:34:24;;;;;;;15.00;13.40;;;16.00;99.90;;;;;;5000274;28;20040;-86
2023/09/10 05:36:50;;;;;;;15.73;13.52;;;16.00;99.90;;;;;;5000452;28;20040;-85
2023/09/10 05:39:15;;;;;;;17.75;13.18;;;16.10;99.90;;;;;;4999862;28;20058;-85
2023/09/10 05:41:41;;;;;;;14.80;12.82;;;16.10;99.90;;;;;;4999809;28;20112;-86
2023/09/10 05:44:07;;;;;;;16.27;13.13;;;16.20;99.90;;;;;;5000815;28;20075;-86
2023/09/10 05:46:33;;;;;;;16.63;12.23;;;16.20;99.90;;;;;;5000539;28;20504;-85
2023/09/10 05:48:58;;;;;;;16.23;12.68;;;16.20;99.90;;;;;;4981961;28;20068;-86
2023/09/10 05:51:24;;;;;;;16.88;12.50;;;16.30;99.90;;;;;;4998907;28;20045;-86
2023/09/10 05:53:50;;;;;;;14.85;12.45;;;16.30;99.90;;;;;;4999368;28;20390;-86
2023/09/10 05:56:15;;;;;;;13.55;12.05;;;16.40;99.90;;;;;;4999467;28;20048;-85
2023/09/10 05:58:42;;;;;;;15.88;12.45;;;16.50;99.90;;;;;;4999283;28;20135;-86
2023/09/10 06:01:08;;;;;;;13.70;12.30;;;16.60;99.90;;;;;;4999288;28;20054;-86
2023/09/10 06:03:34;;;;;;;14.43;12.93;;;16.60;99.90;;;;;;5000820;28;20133;-85
2023/09/10 06:06:01;;;;;;;17.13;12.40;;;16.70;99.90;;;;;;4999164;28;20045;-86
2023/09/10 06:08:29;;;;;;;15.38;13.43;;;16.70;99.90;;;;;;5001501;28;20063;-86
2023/09/10 06:10:54;;;;;;;16.50;13.77;;;16.80;99.90;;;;;;4998857;28;20072;-85
2023/09/10 06:13:20;;;;;;;16.50;14.80;;;16.90;99.90;;;;;;5000948;28;20026;-85
2023/09/10 06:15:46;;;;;;;14.95;12.80;;;17.00;99.90;;;;;;4998918;28;20044;-85
2023/09/10 06:18:11;;;;;;;15.35;13.75;;;17.10;99.90;;;;;;5003351;28;20025;-86
2023/09/10 06:20:37;;;;;;;15.38;13.77;;;17.10;99.90;;;;;;5006582;28;20050;-85
2023/09/10 06:23:02;;;;;;;15.52;13.60;;;17.20;99.90;;;;;;5004993;28;20069;-85
2023/09/10 06:25:28;;;;;;;16.00;14.32;;;17.20;99.90;;;;;;4998085;28;20037;-86
2023/09/10 06:27:54;;;;;;;16.70;14.82;;;17.30;99.90;;;;;;4996919;28;20086;-86
2023/09/10 06:30:19;;;;;;;17.05;13.80;;;17.40;99.90;;;;;;4997884;28;20037;-86
2023/09/10 06:32:47;;;;;;;16.40;13.95;;;17.50;99.90;;;;;;4997897;28;20112;-86
2023/09/10 06:35:13;;;;;;;17.73;15.50;;;17.60;99.90;;;;;;4996497;28;20065;-86
2023/09/10 06:37:39;;;;;;;18.00;16.13;;;17.70;99.90;;;;;;4998050;28;20773;-87
2023/09/10 06:40:05;;;;;;;18.48;16.55;;;17.80;99.90;;;;;;4996393;28;20040;-85
2023/09/10 06:42:31;;;;;;;17.65;15.85;;;17.90;99.90;;;;;;4999954;28;20811;-85
2023/09/10 06:44:57;;;;;;;19.55;16.48;;;18.10;99.90;;;;;;4995440;28;20029;-86
2023/09/10 06:47:23;;;;;;;17.27;15.48;;;18.10;99.90;;;;;;4998790;28;20136;-85
2023/09/10 06:49:48;;;;;;;17.08;14.45;;;18.20;99.90;;;;;;4998475;28;20103;-86
2023/09/10 06:52:14;;;;;;;17.30;14.90;;;18.30;99.90;;;;;;4997650;28;20033;-87
2023/09/10 06:54:40;;;;;;;16.38;14.68;;;18.40;99.90;;;;;;5000578;28;20045;-86
2023/09/10 06:57:05;;;;;;;16.58;14.02;;;18.50;99.90;;;;;;4983924;28;20038;-87
2023/09/10 06:59:31;;;;;;;15.95;14.25;;;18.60;99.90;;;;;;5002993;28;20029;-86
2023/09/10 07:01:57;;;;;;;14.90;13.40;;;18.70;99.90;;;;;;5009355;28;20027;-85
2023/09/10 07:04:24;;;;;;;16.65;13.45;;;18.90;99.90;;;;;;5007761;28;20115;-85
2023/09/10 07:06:51;;;;;;;15.07;13.55;;;19.00;99.90;;;;;;5009385;28;20036;-85
2023/09/10 07:09:21;;;;;;;13.68;12.32;;;19.10;99.90;;;;;;5024531;28;20012;-85
2023/09/10 07:11:50;;;;;;;14.68;12.43;;;19.20;99.90;;;;;;5009259;28;20010;-85
2023/09/10 07:14:16;;;;;;;16.55;12.63;;;19.40;99.90;;;;;;5009484;28;20087;-85
2023/09/10 07:16:42;;;;;;;13.10;11.82;;;19.50;99.90;;;;;;4994509;28;20038;-86
2023/09/10 07:19:08;;;;;;;14.30;12.13;;;19.70;99.90;;;;;;4997557;28;20092;-86
2023/09/10 07:21:33;;;;;;;11.75;10.50;;;19.80;99.90;;;;;;5000938;28;20396;-86
2023/09/10 07:23:59;;;;;;;13.32;11.82;;;19.90;99.90;;;;;;4999729;28;20052;-87
2023/09/10 07:26:26;;;;;;;14.07;12.40;;;20.10;99.90;;;;;;4999059;28;20139;-87
2023/09/10 07:28:51;;;;;;;13.70;11.88;;;20.30;99.90;;;;;;4998030;28;20033;-86
2023/09/10 07:31:17;;;;;;;12.98;11.13;;;20.30;99.90;;;;;;4997919;28;20030;-86
2023/09/10 07:33:43;;;;;;;14.60;11.32;;;20.40;99.90;;;;;;4980345;28;20081;-86
2023/09/10 07:36:08;;;;;;;12.82;11.63;;;20.60;99.90;;;;;;4998852;28;20084;-86
2023/09/10 07:38:34;;;;;;;24.98;12.25;;;20.60;99.90;;;;;;4996176;28;20030;-85
2023/09/10 07:40:59;;;;;;;13.70;11.30;;;20.80;99.90;;;;;;4996452;28;20034;-86
2023/09/10 07:43:25;;;;;;;15.50;11.80;;;20.90;99.90;;;;;;4998080;28;20038;-87
2023/09/10 07:45:50;;;;;;;12.05;10.85;;;21.00;99.90;;;;;;4997564;28;20116;-87
2023/09/10 07:48:16;;;;;;;12.45;11.15;;;21.10;99.90;;;;;;4997507;28;20062;-87
2023/09/10 07:50:42;;;;;;;12.43;11.18;;;21.20;99.90;;;;;;4997999;28;20081;-87
2023/09/10 07:53:08;;;;;;;14.98;11.52;;;21.30;99.90;;;;;;4998433;28;20033;-86
2023/09/10 07:55:36;;;;;;;12.13;10.73;;;21.40;99.90;;;;;;4979479;28;20096;-86
2023/09/10 07:58:03;;;;;;;12.35;11.00;;;21.60;99.90;;;;;;4996347;28;20026;-86
2023/09/10 08:00:29;;;;;;;12.75;10.88;;;21.70;99.90;;;;;;4996589;28;20026;-86
2023/09/10 08:02:55;;;;;;;11.98;10.52;;;21.80;99.90;;;;;;4996839;28;20225;-86
2023/09/10 08:05:21;;;;;;;12.20;10.13;;;21.90;99.90;;;;;;4979382;28;20094;-86
2023/09/10 08:07:46;;;;;;;12.27;10.75;;;22.10;99.90;;;;;;4997370;28;20025;-86
2023/09/10 08:10:12;;;;;;;11.82;10.63;;;22.20;99.90;;;;;;4996754;28;20029;-86
2023/09/10 08:12:37;;;;;;;12.30;10.30;;;22.30;99.90;;;;;;4997844;28;20026;-86
2023/09/10 08:15:05;;;;;;;12.10;9.95;;;22.40;99.90;;;;;;4998098;28;20484;-86
2023/09/10 08:17:30;;;;;;;11.55;10.25;;;22.50;99.90;;;;;;4995045;28;20117;-86
2023/09/10 08:19:56;;;;;;;11.20;10.10;;;22.60;99.90;;;;;;4996737;28;20034;-86
2023/09/10 08:22:21;;;;;;;11.75;10.55;;;22.70;99.90;;;;;;4996856;28;20117;-85
2023/09/10 08:24:48;;;;;;;10.05;9.05;;;22.90;99.90;;;;;;4996617;28;20488;-86
2023/09/10 08:27:14;;;;;;;12.57;9.35;;;23.00;99.90;;;;;;4995223;28;20077;-87
2023/09/10 08:29:39;;;;;;;12.07;9.50;;;23.10;99.90;;;;;;4991854;28;20022;-87
2023/09/10 08:32:05;;;;;;;10.23;8.70;;;23.20;99.90;;;;;;4995691;28;20041;-87
2023/09/10 08:34:31;;;;;;;11.23;9.90;;;23.30;99.90;;;;;;4994741;28;20023;-87
2023/09/10 08:36:56;;;;;;;10.20;8.65;;;23.40;99.90;;;;;;4995015;28;20028;-86
2023/09/10 08:39:22;;;;;;;10.35;9.07;;;23.60;99.90;;;;;;4993784;28;20026;-86
2023/09/10 08:42:30;;;;;;;10.45;9.40;;;23.70;99.90;;;;;;4977791;28;20789;-86
2023/09/10 08:45:04;;;;;;;10.80;8.27;;;23.80;99.90;;;;;;4995448;28;20053;-86
2023/09/10 08:47:39;;;;;;;9.07;8.10;;;24.00;99.90;;;;;;4998849;28;20057;-87
2023/09/10 08:50:07;;;;;;;;;;;24.20;99.90;;;;;;4995220;28;20034;-86
2023/09/10 08:52:34;;;;;;;8.75;7.88;;;24.30;99.90;;;;;;4992664;28;20307;-87
2023/09/10 08:55:00;;;;;;;10.45;7.93;;;24.50;99.90;;;;;;4993995;28;20497;-85
2023/09/10 08:57:29;;;;;;;9.27;7.53;;;24.70;99.90;;;;;;4996545;28;20169;-86
2023/09/10 08:59:56;;;;;;;10.10;7.60;;;24.90;99.90;;;;;;4995494;28;20029;-86
2023/09/10 09:02:21;;;;;;;8.82;8.00;;;25.10;99.90;;;;;;4994543;28;20420;-86
2023/09/10 09:04:48;;;;;;;9.00;7.57;;;25.20;99.90;;;;;;4994714;28;20029;-87
2023/09/10 09:07:17;;;;;;;9.68;8.43;;;25.40;99.90;;;;;;4994720;28;20034;-87
2023/09/10 09:09:48;;;;;;;10.48;7.47;;;25.60;99.90;;;;;;4995753;28;20098;-87
2023/09/10 09:12:15;;;;;;;10.13;7.53;;;25.70;99.90;;;;;;4995330;28;20089;-87
2023/09/10 09:14:44;;;;;;;8.95;7.35;;;25.80;99.90;;;;;;4995753;28;20846;-86
2023/09/10 09:17:12;;;;;;;8.70;7.65;;;26.00;99.90;;;;;;4995790;28;20030;-87
2023/09/10 09:19:40;;;;;;;8.88;7.60;;;26.20;99.90;;;;;;4995350;28;20021;-86
2023/09/10 09:22:08;;;;;;;10.57;7.22;;;26.40;99.90;;;;;;4995860;28;20050;-86
2023/09/10 09:24:34;;;;;;;10.00;7.70;;;26.60;99.90;;;;;;4995233;28;20533;-87
2023/09/10 09:27:00;;;;;;;9.82;7.00;;;26.80;99.90;;;;;;4995705;28;20026;-87
2023/09/10 09:29:30;;;;;;;7.88;7.07;;;27.00;99.90;;;;;;4998104;28;20085;-86
2023/09/10 09:31:56;;;;;;;8.95;6.78;;;27.20;99.90;;;;;;4981977;28;20029;-87
2023/09/10 09:34:21;;;;;;;9.00;6.78;;;27.30;99.90;;;;;;5000943;28;20104;-87
2023/09/10 09:36:53;;;;;;;7.63;6.10;;;27.50;99.90;;;;;;5000128;28;20088;-87
2023/09/10 09:39:20;;;;;;;8.15;6.85;;;27.60;99.90;;;;;;4999729;28;20026;-86
2023/09/10 09:41:53;;;;;;;11.38;7.22;;;27.60;99.90;;;;;;4999948;28;20058;-86
2023/09/10 09:44:19;;;;;;;9.60;6.60;;;27.80;99.90;;;;;;5000282;28;20053;-86
2023/09/10 09:46:46;;;;;;;10.10;6.72;;;27.80;99.90;;;;;;5002953;28;20026;-87
2023/09/10 09:49:12;;;;;;;8.38;6.38;;;27.80;99.90;;;;;;5003792;28;20030;-87
2023/09/10 09:51:40;;;;;;;7.78;6.65;;;27.80;99.90;;;;;;5003119;28;20046;-87
2023/09/10 09:54:12;;;;;;;9.55;6.45;;;28.00;99.90;;;;;;5001907;28;20027;-87
2023/09/10 09:56:37;;;;;;;8.57;6.30;;;28.20;99.90;;;;;;4990402;28;20042;-87
2023/09/10 09:59:03;;;;;;;9.50;6.57;;;28.30;99.90;;;;;;5012102;28;20026;-86
2023/09/10 10:01:29;;;;;;;9.77;6.32;;;28.60;99.90;;;;;;5023172;28;20062;-84
2023/09/10 10:03:56;;;;;;;7.63;6.28;;;28.70;99.90;;;;;;5029671;28;20069;-86
2023/09/10 10:06:23;;;;;;;9.23;6.43;;;28.70;99.90;;;;;;5026883;28;20017;-83
2023/09/10 10:08:49;;;;;;;9.23;6.45;;;28.70;99.90;;;;;;5028744;28;20006;-85
2023/09/10 10:11:32;;;;;;;10.65;6.22;;;28.80;99.90;;;;;;5024079;28;20050;-85
2023/09/10 10:13:59;;;;;;;9.50;6.88;;;28.80;99.90;;;;;;5000244;28;20080;-84
2023/09/10 10:16:29;;;;;;;7.32;5.75;;;28.90;99.90;;;;;;4995359;28;20141;-86
2023/09/10 10:18:56;;;;;;;6.80;6.07;;;29.10;99.90;;;;;;4993956;28;20088;-85
2023/09/10 10:21:25;;;;;;;6.82;6.05;;;29.30;99.90;;;;;;4994337;28;20631;-85
2023/09/10 10:23:56;;;;;;;7.65;5.03;;;29.30;99.90;;;;;;4976720;28;20038;-85
2023/09/10 10:26:23;;;;;;;9.45;5.80;;;29.30;99.90;;;;;;4993031;28;20030;-84
2023/09/10 10:28:49;;;;;;;8.20;5.45;;;29.40;99.90;;;;;;4994488;28;20409;-86
2023/09/10 10:31:28;;;;;;;8.52;6.10;;;29.30;99.90;;;;;;4994593;28;20030;-84
2023/09/10 10:34:08;;;;;;;12.73;6.47;;;29.30;99.90;;;;;;4997200;28;20033;-85
2023/09/10 10:36:57;;;;;;;6.78;5.68;;;29.40;99.90;;;;;;4994299;28;20045;-86
2023/09/10 10:39:32;;;;;;;9.70;6.43;;;29.40;99.90;;;;;;4994161;28;20025;-85
2023/09/10 10:42:02;;;;;;;9.80;6.07;;;29.70;99.90;;;;;;4976751;28;20029;-85
2023/09/10 10:44:37;;;;;;;7.82;6.32;;;29.80;99.90;;;;;;4996903;28;20102;-85
2023/09/10 10:47:17;;;;;;;8.40;5.97;;;30.10;99.90;;;;;;4976822;28;20030;-85
2023/09/10 10:50:02;;;;;;;6.85;5.88;;;30.00;99.90;;;;;;4994235;28;20042;-86
2023/09/10 10:52:30;;;;;;;6.20;5.60;;;30.10;99.90;;;;;;4995976;28;20030;-85
2023/09/10 10:54:56;;;;;;;6.47;5.20;;;30.20;99.90;;;;;;4995149;28;20042;-85
2023/09/10 10:57:24;;;;;;;6.97;5.18;;;30.20;99.90;;;;;;4995768;28;20030;-85
2023/09/10 10:59:50;;;;;;;8.45;5.75;;;30.50;99.90;;;;;;4997340;28;20434;-85
2023/09/10 11:02:22;;;;;;;6.57;5.32;;;30.40;99.90;;;;;;5000113;28;20072;-85
2023/09/10 11:04:59;;;;;;;8.68;4.72;;;30.60;99.90;;;;;;4997632;28;20484;-85
2023/09/10 11:07:26;;;;;;;7.20;4.57;;;30.50;99.90;;;;;;4996606;28;20412;-85
2023/09/10 11:09:52;;;;;;;7.43;4.78;;;30.60;99.90;;;;;;4995292;28;20040;-85
2023/09/10 11:12:18;;;;;;;7.05;5.30;;;30.60;99.90;;;;;;4996147;28;20067;-85
2023/09/10 11:14:59;;;;;;;8.93;4.70;;;30.70;99.90;;;;;;4995902;28;20045;-84
2023/09/10 11:17:27;;;;;;;9.20;4.93;;;30.70;99.90;;;;;;4993532;28;20409;-85
2023/09/10 11:19:52;;;;;;;7.65;4.63;;;30.70;99.90;;;;;;4991966;28;20034;-85
2023/09/10 11:22:18;;;;;;;9.07;5.07;;;30.50;99.90;;;;;;4994481;28;20487;-85
2023/09/10 11:24:58;;;;;;;7.03;4.65;;;30.60;99.90;;;;;;4994314;28;20030;-85
2023/09/10 11:27:30;;;;;;;6.70;4.53;;;30.70;99.90;;;;;;4993366;28;20038;-85
2023/09/10 11:30:05;;;;;;;7.53;4.50;;;30.90;99.90;;;;;;4992565;28;20121;-85
2023/09/10 11:32:31;;;;;;;6.97;4.30;;;30.90;99.90;;;;;;4995382;28;20831;-85
2023/09/10 11:35:20;;;;;;;5.68;3.95;;;31.00;99.90;;;;;;4994412;28;20031;-85
2023/09/10 11:37:55;;;;;;;7.53;4.38;;;30.90;99.90;;;;;;4985354;28;20034;-85
2023/09/10 11:40:24;;;;;;;8.77;4.70;;;30.90;99.90;;;;;;4992702;28;20132;-85
2023/09/10 11:42:56;;;;;;;6.25;4.80;;;31.10;99.90;;;;;;4994244;28;20041;-85
2023/09/10 11:45:22;;;;;;;7.82;4.90;;;31.10;99.90;;;;;;4993831;28;20042;-84
2023/09/10 11:47:50;;;;;;;7.15;4.40;;;31.30;99.90;;;;;;4994859;28;20552;-85
2023/09/10 11:50:21;;;;;;;5.72;4.15;;;31.50;99.90;;;;;;4976164;28;20705;-86
2023/09/10 11:52:47;;;;;;;6.20;4.28;;;31.50;99.90;;;;;;4993724;28;20022;-85
2023/09/10 11:55:14;;;;;;;9.95;5.00;;;31.50;99.90;;;;;;4993662;28;20076;-85
2023/09/10 11:57:39;;;;;;;6.50;4.65;;;31.50;99.90;;;;;;4995665;28;20029;-85
2023/09/10 12:00:06;;;;;;;6.07;4.40;;;31.50;99.90;;;;;;4993222;28;20052;-85
2023/09/10 12:02:32;;;;;;;6.82;4.20;;;31.60;99.90;;;;;;4994367;28;20030;-85
2023/09/10 12:05:06;;;;;;;9.02;4.65;;;31.50;99.90;;;;;;4993400;28;20030;-85
2023/09/10 12:07:31;;;;;;;8.38;4.47;;;31.30;99.90;;;;;;4974824;28;20453;-84
2023/09/10 12:09:57;;;;;;;6.80;4.30;;;31.40;99.90;;;;;;4990903;28;20112;-84
2023/09/10 12:12:28;;;;;;;7.35;4.78;;;31.50;99.90;;;;;;4992987;28;20033;-85
2023/09/10 12:14:55;;;;;;;6.18;4.43;;;31.60;99.90;;;;;;4993032;28;20033;-84
2023/09/10 12:17:21;;;;;;;6.28;4.25;;;31.60;99.90;;;;;;4998948;28;20041;-85
2023/09/10 12:19:47;;;;;;;7.20;4.55;;;31.70;99.90;;;;;;4996091;28;20030;-85
2023/09/10 12:22:18;;;;;;;7.75;4.70;;;31.60;99.90;;;;;;4994624;28;20029;-86
2023/09/10 12:24:44;;;;;;;5.10;4.60;;;31.40;99.90;;;;;;4994468;28;20026;-85
2023/09/10 12:27:11;;;;;;;6.10;4.65;;;31.50;99.90;;;;;;4994039;28;20026;-85
2023/09/10 12:29:37;;;;;;;7.00;5.22;;;31.70;99.90;;;;;;4975253;28;20552;-85
2023/09/10 12:32:03;;;;;;;5.07;4.47;;;31.60;99.90;;;;;;4994364;28;20702;-86
2023/09/10 12:34:29;;;;;;;8.85;4.97;;;31.70;99.90;;;;;;4993908;28;20432;-85